Time;durP1;ratioP1;P1;durP2;ratioP2;P2;SDS_P1;SDS_P2;PMS_P1;PMS_P2;Temp;Humidity;BMP_temperature;BMP_pressure;BME280_temperature;BME280_humidity;BME280_pressure;Samples;Min_cycle;Max_cycle;Signal;HPM_P1;HPM_P2
2021/04/10 00:01:12;;;;;;;22.70;2.85;;;1.50;99.90;;;;;;4994291;28;20499;-87
2021/04/10 00:03:37;;;;;;;18.55;3.17;;;1.50;99.90;;;;;;4995048;28;20080;-89
2021/04/10 00:06:03;;;;;;;22.58;2.92;;;1.50;99.90;;;;;;4993823;28;20108;-88
2021/04/10 00:08:29;;;;;;;13.10;2.58;;;1.40;99.90;;;;;;5026614;28;20030;-89
2021/04/10 00:10:55;;;;;;;13.77;2.67;;;1.40;99.90;;;;;;4994989;28;20558;-88
2021/04/10 00:13:21;;;;;;;26.25;2.83;;;1.30;99.90;;;;;;5026805;28;20113;-88
2021/04/10 00:15:47;;;;;;;12.65;2.50;;;1.30;99.90;;;;;;4994409;28;20031;-87
2021/04/10 00:18:13;;;;;;;26.30;4.80;;;1.30;99.90;;;;;;4995103;28;20081;-89
2021/04/10 00:20:38;;;;;;;35.42;3.25;;;1.20;99.90;;;;;;5010216;28;20036;-87
2021/04/10 00:23:04;;;;;;;45.67;4.05;;;1.20;99.90;;;;;;4993647;28;20049;-88
2021/04/10 00:25:29;;;;;;;15.50;2.75;;;1.20;99.90;;;;;;4994401;28;20026;-88
2021/04/10 00:27:55;;;;;;;10.13;3.20;;;1.10;99.90;;;;;;4994983;28;20460;-86
2021/04/10 00:30:21;;;;;;;23.52;3.72;;;1.10;99.90;;;;;;5010071;28;20395;-88
2021/04/10 00:32:47;;;;;;;20.70;3.17;;;1.10;99.90;;;;;;4994657;28;20029;-87
2021/04/10 00:35:13;;;;;;;21.23;3.28;;;1.00;99.90;;;;;;4993024;28;20027;-89
2021/04/10 00:37:39;;;;;;;24.05;3.63;;;1.00;99.90;;;;;;4994754;28;20034;-88
2021/04/10 00:40:06;;;;;;;19.55;3.60;;;0.90;99.90;;;;;;4994720;28;20026;-90
2021/04/10 00:42:33;;;;;;;16.77;2.65;;;0.80;99.90;;;;;;4994621;28;20131;-88
2021/04/10 00:44:58;;;;;;;10.00;2.25;;;0.80;99.90;;;;;;4993815;28;20037;-89
2021/04/10 00:47:24;;;;;;;29.52;2.85;;;0.80;99.90;;;;;;4994482;28;20105;-89
2021/04/10 00:49:50;;;;;;;16.13;2.67;;;0.90;99.90;;;;;;4994521;28;20390;-88
2021/04/10 00:52:17;;;;;;;22.27;3.08;;;0.80;99.90;;;;;;4994269;28;20038;-87
2021/04/10 00:54:47;;;;;;;21.10;3.20;;;0.70;99.90;;;;;;4993851;28;20058;-89
2021/04/10 00:57:12;;;;;;;13.40;2.30;;;0.70;99.90;;;;;;4994385;28;20029;-88
2021/04/10 00:59:38;;;;;;;18.35;2.58;;;0.70;99.90;;;;;;4993561;28;20026;-87
2021/04/10 01:02:05;;;;;;;11.40;2.08;;;0.60;99.90;;;;;;4994213;28;20023;-87
2021/04/10 01:04:31;;;;;;;19.05;1.92;;;0.50;99.90;;;;;;4993329;28;20044;-88
2021/04/10 01:06:57;;;;;;;13.77;2.17;;;0.30;99.90;;;;;;4993789;28;20479;-88
2021/04/10 01:09:22;;;;;;;20.08;4.93;;;0.10;99.90;;;;;;4993646;28;20038;-89
2021/04/10 01:12:09;;;;;;;16.98;2.90;;;0.00;99.90;;;;;;4994197;28;20101;-88
2021/04/10 01:15:14;;;;;;;10.13;2.13;;;-0.10;99.90;;;;;;5007708;28;20049;-89
2021/04/10 01:17:51;;;;;;;19.90;2.88;;;-0.20;99.90;;;;;;5019202;28;20031;-88
2021/04/10 01:20:56;;;;;;;14.13;2.55;;;-0.20;99.90;;;;;;4993747;28;20030;-88
2021/04/10 01:23:40;;;;;;;13.48;2.70;;;-0.20;99.90;;;;;;4993715;28;20022;-88
2021/04/10 01:26:11;;;;;;;14.63;2.70;;;-0.30;99.90;;;;;;4993509;28;20027;-89
2021/04/10 01:28:53;;;;;;;11.65;2.40;;;-0.30;99.90;;;;;;4993721;28;20051;-88
2021/04/10 01:31:22;;;;;;;14.40;2.30;;;-0.30;99.90;;;;;;4993614;28;20030;-88
2021/04/10 01:33:52;;;;;;;16.95;2.50;;;-0.40;99.90;;;;;;4992808;28;20038;-89
2021/04/10 01:36:26;;;;;;;11.43;2.80;;;-0.50;99.90;;;;;;4993474;28;20173;-87
2021/04/10 01:38:52;;;;;;;14.10;3.83;;;-0.60;99.90;;;;;;4993285;28;20490;-88
2021/04/10 01:41:19;;;;;;;16.50;2.50;;;-0.70;99.90;;;;;;4993488;28;20164;-88
2021/04/10 01:43:47;;;;;;;15.15;2.13;;;-0.70;99.90;;;;;;4992401;28;20045;-88
2021/04/10 01:46:13;;;;;;;22.25;3.20;;;-0.80;99.90;;;;;;4993255;28;20069;-88
2021/04/10 01:48:42;;;;;;;6.90;2.35;;;-0.70;99.90;;;;;;4993335;28;20061;-86
2021/04/10 01:51:08;;;;;;;21.13;2.40;;;-0.70;99.90;;;;;;4993146;28;20114;-88
2021/04/10 01:53:35;;;;;;;32.33;3.53;;;-0.60;99.90;;;;;;4993141;28;20034;-87
2021/04/10 01:56:02;;;;;;;16.45;2.90;;;-0.70;99.90;;;;;;4992911;28;20026;-88
2021/04/10 01:58:28;;;;;;;12.05;2.33;;;-0.70;99.90;;;;;;4993186;28;20065;-90
2021/04/10 02:00:56;;;;;;;23.77;3.67;;;-0.70;99.90;;;;;;4993126;28;20036;-87
2021/04/10 02:03:22;;;;;;;17.48;2.25;;;-0.70;99.90;;;;;;4993207;28;20030;-88
2021/04/10 02:05:51;;;;;;;15.57;2.50;;;-0.80;99.90;;;;;;5023832;28;20049;-89
2021/04/10 02:08:19;;;;;;;29.52;2.55;;;-0.90;99.90;;;;;;4999812;28;20029;-90
2021/04/10 02:10:45;;;;;;;8.05;2.40;;;-0.90;99.90;;;;;;5011967;28;20032;-89
2021/04/10 02:13:13;;;;;;;11.02;2.40;;;-1.00;99.90;;;;;;5011607;28;20474;-89
2021/04/10 02:15:39;;;;;;;24.98;3.30;;;-1.00;99.90;;;;;;5012181;28;20026;-89
2021/04/10 02:18:05;;;;;;;25.67;3.08;;;-1.00;99.90;;;;;;5011424;28;20022;-90
2021/04/10 02:20:30;;;;;;;12.15;2.22;;;-1.00;99.90;;;;;;5012667;28;20394;-88
2021/04/10 02:22:57;;;;;;;14.20;2.30;;;-0.90;99.90;;;;;;5012554;28;20018;-87
2021/04/10 02:25:28;;;;;;;16.85;2.85;;;-1.00;99.90;;;;;;5010901;28;20030;-87
2021/04/10 02:27:54;;;;;;;17.42;3.33;;;-1.00;99.90;;;;;;5015096;28;20029;-89
2021/04/10 02:30:21;;;;;;;12.43;2.53;;;-1.00;99.90;;;;;;5031925;28;20116;-86
2021/04/10 02:32:57;;;;;;;18.08;3.10;;;-1.10;99.90;;;;;;5016644;28;20064;-88
2021/04/10 02:35:45;;;;;;;19.20;2.80;;;-1.20;99.90;;;;;;5015903;28;20033;-89
2021/04/10 02:38:13;;;;;;;9.50;2.38;;;-1.30;99.90;;;;;;5016440;28;20538;-89
2021/04/10 02:40:43;;;;;;;25.67;2.97;;;-1.30;99.90;;;;;;5016416;28;20116;-89
2021/04/10 02:43:12;;;;;;;12.75;2.50;;;-1.30;99.90;;;;;;5015086;28;20030;-88
2021/04/10 02:45:41;;;;;;;18.92;2.95;;;-1.30;99.90;;;;;;5014706;28;20375;-89
2021/04/10 02:48:20;;;;;;;16.83;3.90;;;-1.30;99.90;;;;;;5016417;28;20022;-88
2021/04/10 02:50:47;;;;;;;15.50;3.13;;;-1.40;99.90;;;;;;5015202;28;20486;-89
2021/04/10 02:53:13;;;;;;;16.02;2.85;;;-1.40;99.90;;;;;;5016271;28;20030;-89
2021/04/10 02:55:44;;;;;;;19.48;2.80;;;-1.50;99.90;;;;;;5015785;28;20036;-87
2021/04/10 02:58:12;;;;;;;23.52;3.80;;;-1.50;99.90;;;;;;5016504;28;20021;-88
2021/04/10 03:00:40;;;;;;;12.73;2.38;;;-1.50;99.90;;;;;;5016300;28;20482;-89
2021/04/10 03:03:08;;;;;;;21.80;2.40;;;-1.50;99.90;;;;;;5016458;28;20138;-89
2021/04/10 03:05:36;;;;;;;13.57;2.83;;;-1.60;99.90;;;;;;5014373;28;20026;-88
2021/04/10 03:08:02;;;;;;;18.35;2.72;;;-1.70;99.90;;;;;;5016339;28;20026;-88
2021/04/10 03:10:28;;;;;;;20.45;2.50;;;-1.70;99.90;;;;;;5016227;28;20569;-88
2021/04/10 03:12:56;;;;;;;38.53;6.57;;;-1.70;99.90;;;;;;5016100;28;20105;-89
2021/04/10 03:15:22;;;;;;;20.60;3.25;;;-1.70;99.90;;;;;;5014705;28;20112;-88
2021/04/10 03:17:48;;;;;;;16.60;2.30;;;-1.70;99.90;;;;;;5001135;28;20022;-89
2021/04/10 03:20:16;;;;;;;14.40;1.95;;;-1.70;99.90;;;;;;4996300;28;20398;-87
2021/04/10 03:22:43;;;;;;;15.40;3.38;;;-1.70;99.90;;;;;;4995309;28;20082;-88
2021/04/10 03:25:10;;;;;;;15.38;2.80;;;-1.70;99.90;;;;;;4995776;28;20049;-88
2021/04/10 03:27:35;;;;;;;22.33;3.28;;;-1.70;99.90;;;;;;4996317;28;20054;-89
2021/04/10 03:30:01;;;;;;;22.13;4.65;;;-1.70;99.90;;;;;;4994897;28;20054;-89
2021/04/10 03:32:27;;;;;;;5.60;2.08;;;-1.70;99.90;;;;;;4995223;28;20023;-88
2021/04/10 03:34:54;;;;;;;14.60;2.08;;;-1.80;99.90;;;;;;4995412;28;20533;-89
2021/04/10 03:37:21;;;;;;;24.20;2.83;;;-1.80;99.90;;;;;;4995760;28;20352;-88
2021/04/10 03:39:47;;;;;;;18.48;2.75;;;-1.80;99.90;;;;;;4995719;28;20027;-89
2021/04/10 03:42:13;;;;;;;13.52;2.85;;;-1.80;99.90;;;;;;4995025;28;20034;-88
2021/04/10 03:44:38;;;;;;;26.73;3.22;;;-1.90;99.90;;;;;;4994255;28;20023;-88
2021/04/10 03:47:04;;;;;;;19.23;3.13;;;-1.90;99.90;;;;;;4995947;28;20031;-88
2021/04/10 03:49:30;;;;;;;24.27;2.70;;;-1.90;99.90;;;;;;4995798;28;20046;-89
2021/04/10 03:51:55;;;;;;;18.35;3.42;;;-1.90;99.90;;;;;;4994598;28;20026;-88
2021/04/10 03:54:21;;;;;;;13.45;3.28;;;-1.90;99.90;;;;;;4993998;28;20023;-88
2021/04/10 03:56:47;;;;;;;14.65;2.47;;;-1.90;99.90;;;;;;4995642;28;20034;-87
2021/04/10 03:59:13;;;;;;;32.78;3.45;;;-1.80;99.90;;;;;;4994611;28;20121;-87
2021/04/10 04:01:39;;;;;;;12.48;2.30;;;-1.90;99.90;;;;;;4995310;28;20038;-88
2021/04/10 04:04:04;;;;;;;11.20;2.08;;;-2.00;99.90;;;;;;4994956;28;20034;-88
2021/04/10 04:06:30;;;;;;;19.85;3.30;;;-2.00;99.90;;;;;;4995561;28;20086;-88
2021/04/10 04:08:55;;;;;;;17.88;2.85;;;-2.10;99.90;;;;;;4994283;28;20026;-88
2021/04/10 04:11:21;;;;;;;15.50;2.78;;;-2.10;99.90;;;;;;4995355;28;20057;-88
2021/04/10 04:13:46;;;;;;;14.10;2.58;;;-2.10;99.90;;;;;;4994909;28;20029;-88
2021/04/10 04:16:12;;;;;;;15.55;2.90;;;-2.20;99.90;;;;;;4995164;28;20487;-88
2021/04/10 04:18:38;;;;;;;22.38;2.63;;;-2.10;99.90;;;;;;5010638;28;20072;-88
2021/04/10 04:21:03;;;;;;;24.65;2.60;;;-2.10;99.90;;;;;;4995299;28;20034;-88
2021/04/10 04:23:29;;;;;;;26.75;3.08;;;-2.10;99.90;;;;;;4995165;28;20035;-89
2021/04/10 04:25:55;;;;;;;24.35;3.22;;;-2.10;99.90;;;;;;5010040;28;20121;-88
2021/04/10 04:28:21;;;;;;;33.85;3.22;;;-2.10;99.90;;;;;;4995151;28;20073;-88
2021/04/10 04:30:47;;;;;;;17.13;2.45;;;-2.00;99.90;;;;;;5010239;28;20050;-88
2021/04/10 04:33:12;;;;;;;10.63;2.17;;;-2.10;99.90;;;;;;4994934;28;20022;-88
2021/04/10 04:35:38;;;;;;;14.07;2.20;;;-2.10;99.90;;;;;;4994552;28;20030;-89
2021/04/10 04:38:04;;;;;;;18.60;3.05;;;-2.20;99.90;;;;;;4995230;28;20018;-89
2021/04/10 04:40:29;;;;;;;16.77;3.10;;;-2.20;99.90;;;;;;5010044;28;20505;-87
2021/04/10 04:42:55;;;;;;;16.67;2.35;;;-2.20;99.90;;;;;;4994733;28;20537;-88
2021/04/10 04:45:21;;;;;;;16.63;2.40;;;-2.20;99.90;;;;;;4994225;28;20026;-89
2021/04/10 04:47:46;;;;;;;11.93;3.63;;;-2.30;99.90;;;;;;5010103;28;20038;-88
2021/04/10 04:50:12;;;;;;;16.48;3.70;;;-2.30;99.90;;;;;;5009078;28;20022;-89
2021/04/10 04:52:38;;;;;;;14.02;2.28;;;-2.20;99.90;;;;;;4994559;28;20561;-89
2021/04/10 04:55:04;;;;;;;26.75;4.00;;;-2.30;99.90;;;;;;5009124;28;20172;-89
2021/04/10 04:57:30;;;;;;;12.32;2.60;;;-2.20;99.90;;;;;;5009893;28;20386;-88
2021/04/10 04:59:55;;;;;;;19.42;2.63;;;-2.20;99.90;;;;;;4994525;28;20026;-88
2021/04/10 05:02:21;;;;;;;17.27;3.08;;;-2.10;99.90;;;;;;4994546;28;20034;-89
2021/04/10 05:04:46;;;;;;;17.35;2.17;;;-2.10;99.90;;;;;;4993892;28;20034;-88
2021/04/10 05:07:12;;;;;;;16.45;3.08;;;-2.10;99.90;;;;;;5009715;28;20113;-88
2021/04/10 05:09:37;;;;;;;11.30;2.65;;;-2.10;99.90;;;;;;4999705;28;20130;-88
2021/04/10 05:12:04;;;;;;;22.00;3.70;;;-2.10;99.90;;;;;;5007931;28;20022;-87
2021/04/10 05:14:29;;;;;;;14.00;3.88;;;-2.00;99.90;;;;;;5013144;28;20054;-88
2021/04/10 05:16:55;;;;;;;14.07;3.17;;;-2.00;99.90;;;;;;5006181;28;20034;-88
2021/04/10 05:19:20;;;;;;;19.40;4.72;;;-1.90;99.90;;;;;;5009834;28;20022;-88
2021/04/10 05:21:46;;;;;;;17.23;2.83;;;-1.80;99.90;;;;;;5011180;28;20134;-88
2021/04/10 05:24:11;;;;;;;21.02;3.45;;;-1.70;99.90;;;;;;4995381;28;20026;-88
2021/04/10 05:26:37;;;;;;;30.02;4.47;;;-1.70;99.90;;;;;;4995273;28;20034;-87
2021/04/10 05:29:03;;;;;;;19.70;3.28;;;-1.50;99.90;;;;;;5010127;28;20041;-87
2021/04/10 05:31:31;;;;;;;18.88;2.67;;;-1.50;99.90;;;;;;4994277;28;20034;-87
2021/04/10 05:33:57;;;;;;;17.33;3.38;;;-1.40;99.90;;;;;;4993468;28;20030;-88
2021/04/10 05:36:23;;;;;;;14.88;3.00;;;-1.30;99.90;;;;;;5009449;28;20018;-87
2021/04/10 05:38:48;;;;;;;12.77;2.70;;;-1.20;99.90;;;;;;4993994;28;20033;-88
2021/04/10 05:41:14;;;;;;;18.92;2.58;;;-1.20;99.90;;;;;;5009285;28;20032;-88
2021/04/10 05:43:39;;;;;;;23.60;2.90;;;-1.10;99.90;;;;;;4993498;28;20034;-87
2021/04/10 05:46:06;;;;;;;23.95;3.35;;;-1.00;99.90;;;;;;4993613;28;20041;-88
2021/04/10 05:48:32;;;;;;;10.57;2.40;;;-0.90;99.90;;;;;;5009212;28;20113;-88
2021/04/10 05:50:58;;;;;;;24.63;3.38;;;-0.70;99.90;;;;;;4993521;28;20479;-88
2021/04/10 05:53:26;;;;;;;20.27;4.50;;;-0.60;99.90;;;;;;4993819;28;20073;-88
2021/04/10 05:55:52;;;;;;;12.27;2.63;;;-0.40;99.90;;;;;;4992932;28;20018;-88
2021/04/10 05:58:17;;;;;;;17.92;3.00;;;-0.30;99.90;;;;;;4993725;28;20529;-87
2021/04/10 06:00:43;;;;;;;19.27;3.10;;;-0.10;99.90;;;;;;4993481;28;20030;-88
2021/04/10 06:03:08;;;;;;;23.33;2.90;;;0.20;99.90;;;;;;4993420;28;20037;-88
2021/04/10 06:05:34;;;;;;;17.45;2.88;;;0.40;99.90;;;;;;5008325;28;20088;-88
2021/04/10 06:07:59;;;;;;;14.93;2.88;;;0.70;99.90;;;;;;5008845;28;20030;-88
2021/04/10 06:10:25;;;;;;;14.73;2.55;;;1.00;99.90;;;;;;4993284;28;20038;-90
2021/04/10 06:12:51;;;;;;;13.40;2.83;;;1.30;99.90;;;;;;4993504;28;20133;-88
2021/04/10 06:15:20;;;;;;;15.73;2.72;;;1.60;99.90;;;;;;4996467;28;20121;-87
2021/04/10 06:17:47;;;;;;;11.90;2.50;;;2.00;99.90;;;;;;5016195;28;20036;-88
2021/04/10 06:20:21;;;;;;;10.73;2.92;;;2.30;99.90;;;;;;5019427;28;20064;-88
2021/04/10 06:22:46;;;;;;;9.75;3.22;;;2.60;99.90;;;;;;5019929;28;20076;-86
2021/04/10 06:25:14;;;;;;;10.68;2.17;;;2.60;99.90;;;;;;5010814;28;20030;-87
2021/04/10 06:27:41;;;;;;;17.00;1.80;;;2.60;99.90;;;;;;5021271;28;20037;-89
2021/04/10 06:30:08;;;;;;;6.53;1.48;;;2.70;99.90;;;;;;5026915;28;20030;-88
2021/04/10 06:32:35;;;;;;;12.48;2.05;;;2.80;99.90;;;;;;5024567;28;20060;-88
2021/04/10 06:35:01;;;;;;;8.30;1.85;;;3.00;99.90;;;;;;5007738;28;20141;-87
2021/04/10 06:37:28;;;;;;;7.00;1.95;;;3.10;99.90;;;;;;5006827;28;20069;-87
2021/04/10 06:39:54;;;;;;;7.38;2.20;;;3.30;99.90;;;;;;5019029;28;20056;-88
2021/04/10 06:42:21;;;;;;;9.82;1.75;;;3.50;99.90;;;;;;5018493;28;20060;-87
2021/04/10 06:44:47;;;;;;;25.63;2.10;;;3.70;99.90;;;;;;5006661;28;20540;-88
2021/04/10 06:47:14;;;;;;;11.93;3.05;;;3.90;99.90;;;;;;5009335;28;20110;-88
2021/04/10 06:49:40;;;;;;;9.30;1.63;;;4.10;99.90;;;;;;5004249;28;20065;-89
2021/04/10 06:52:06;;;;;;;13.43;2.03;;;4.20;99.90;;;;;;5003671;28;20501;-88
2021/04/10 06:54:34;;;;;;;10.80;2.13;;;4.40;99.90;;;;;;5008479;28;20018;-87
2021/04/10 06:57:12;;;;;;;20.42;2.45;;;4.60;99.90;;;;;;5005230;28;20441;-88
2021/04/10 06:59:48;;;;;;;9.80;1.80;;;4.80;99.90;;;;;;5017939;28;20026;-89
2021/04/10 07:02:15;;;;;;;8.48;1.50;;;4.90;99.90;;;;;;5005133;28;20075;-88
2021/04/10 07:04:41;;;;;;;14.07;1.85;;;5.10;99.90;;;;;;5010720;28;20026;-88
2021/04/10 07:07:08;;;;;;;8.32;1.92;;;5.20;99.90;;;;;;5012269;28;20038;-88
2021/04/10 07:09:35;;;;;;;10.45;2.10;;;5.20;99.90;;;;;;5012269;28;20029;-89
2021/04/10 07:12:03;;;;;;;9.85;1.75;;;5.30;99.90;;;;;;5012490;28;20026;-88
2021/04/10 07:14:28;;;;;;;20.98;2.10;;;5.50;99.90;;;;;;5013742;28;20026;-87
2021/04/10 07:16:56;;;;;;;16.27;2.33;;;5.60;99.90;;;;;;5008547;28;20515;-87
2021/04/10 07:19:24;;;;;;;17.05;2.05;;;5.60;99.90;;;;;;5011012;28;20034;-88
2021/04/10 07:22:04;;;;;;;10.88;2.08;;;5.70;99.90;;;;;;4995718;28;20507;-87
2021/04/10 07:24:43;;;;;;;6.32;2.40;;;5.80;99.90;;;;;;4995152;28;20109;-87
2021/04/10 07:27:14;;;;;;;9.25;2.88;;;5.90;99.90;;;;;;4995722;28;20206;-86
2021/04/10 07:29:42;;;;;;;17.75;2.17;;;5.90;99.90;;;;;;4996124;28;20053;-87
2021/04/10 07:32:46;;;;;;;10.73;1.40;;;6.00;99.90;;;;;;4995606;28;20076;-87
2021/04/10 07:35:13;;;;;;;12.85;1.92;;;6.10;99.90;;;;;;5009629;28;20066;-88
2021/04/10 07:37:40;;;;;;;15.43;2.47;;;6.10;99.90;;;;;;4995249;28;20512;-88
2021/04/10 07:40:10;;;;;;;13.93;2.95;;;6.20;99.90;;;;;;4994451;28;20038;-88
2021/04/10 07:42:39;;;;;;;18.90;2.03;;;6.20;99.90;;;;;;5011297;28;20026;-88
2021/04/10 07:45:28;;;;;;;17.30;3.95;;;6.30;99.90;;;;;;5010685;28;20030;-89
2021/04/10 07:48:05;;;;;;;35.15;6.65;;;6.40;99.90;;;;;;4996521;28;20061;-88
2021/04/10 07:50:33;;;;;;;46.50;16.55;;;6.60;99.90;;;;;;4997911;28;20026;-89
2021/04/10 07:53:24;;;;;;;16.23;4.22;;;6.80;99.90;;;;;;5003915;28;20101;-89
2021/04/10 07:55:52;;;;;;;16.17;1.67;;;7.10;99.90;;;;;;4996687;28;20026;-89
2021/04/10 07:58:29;;;;;;;15.57;2.78;;;7.30;99.90;;;;;;4996784;28;20021;-88
2021/04/10 08:00:59;;;;;;;9.27;1.90;;;7.30;99.90;;;;;;4994773;28;20060;-87
2021/04/10 08:03:26;;;;;;;14.90;2.03;;;7.30;99.90;;;;;;4996131;28;20026;-88
2021/04/10 08:05:53;;;;;;;17.98;2.83;;;7.40;99.90;;;;;;5003795;28;20545;-89
2021/04/10 08:08:24;;;;;;;8.80;2.17;;;7.50;99.90;;;;;;4995731;28;20109;-89
2021/04/10 08:11:04;;;;;;;16.15;1.67;;;7.40;99.90;;;;;;5014212;28;20103;-88
2021/04/10 08:13:31;;;;;;;11.75;2.03;;;6.90;99.90;;;;;;5015368;28;20017;-89
2021/04/10 08:16:16;;;;;;;16.95;2.20;;;6.40;99.90;;;;;;5014270;28;20033;-87
2021/04/10 08:18:47;;;;;;;12.77;2.58;;;6.00;99.90;;;;;;4995437;28;20026;-88
2021/04/10 08:21:15;;;;;;;15.23;3.47;;;5.80;99.90;;;;;;4995257;28;20049;-88
2021/04/10 08:23:41;;;;;;;9.80;1.98;;;6.00;99.90;;;;;;4994012;28;20109;-87
2021/04/10 08:26:08;;;;;;;8.65;1.60;;;6.40;99.90;;;;;;4994412;28;20117;-88
2021/04/10 08:28:36;;;;;;;10.13;3.05;;;6.70;99.90;;;;;;4994047;28;20085;-85
2021/04/10 08:31:02;;;;;;;11.85;3.15;;;7.10;99.90;;;;;;5000737;28;20030;-87
2021/04/10 08:33:29;;;;;;;6.70;1.27;;;7.20;99.90;;;;;;5009449;28;20021;-86
2021/04/10 08:35:58;;;;;;;6.05;1.80;;;7.40;99.90;;;;;;5008761;28;20030;-86
2021/04/10 08:38:27;;;;;;;15.20;2.05;;;7.50;99.90;;;;;;5026386;28;20028;-86
2021/04/10 08:40:58;;;;;;;9.23;1.50;;;7.70;99.90;;;;;;5026672;28;20087;-84
2021/04/10 08:43:27;;;;;;;13.30;2.50;;;8.00;99.90;;;;;;5018719;28;20033;-83
2021/04/10 08:45:54;;;;;;;12.75;1.75;;;8.50;99.90;;;;;;5010554;28;20025;-86
2021/04/10 08:48:21;;;;;;;12.13;2.70;;;8.50;99.90;;;;;;5011954;28;20513;-85
2021/04/10 08:50:51;;;;;;;9.20;1.63;;;8.40;99.90;;;;;;5013161;28;20030;-86
2021/04/10 08:53:23;;;;;;;19.73;2.22;;;8.10;99.90;;;;;;5012791;28;20026;-85
2021/04/10 08:55:51;;;;;;;12.55;2.22;;;7.80;99.90;;;;;;5012584;28;20109;-85
2021/04/10 08:58:26;;;;;;;9.52;1.80;;;7.40;99.90;;;;;;5011777;28;20505;-86
2021/04/10 09:00:58;;;;;;;18.80;2.13;;;7.30;99.90;;;;;;5012967;28;20034;-84
2021/04/10 09:03:46;;;;;;;12.05;1.95;;;7.00;99.90;;;;;;5013206;28;20033;-84
2021/04/10 09:06:15;;;;;;;11.25;1.65;;;6.80;99.90;;;;;;5011601;28;20041;-85
2021/04/10 09:08:41;;;;;;;16.90;3.15;;;6.80;99.90;;;;;;5013425;28;20030;-86
2021/04/10 09:11:08;;;;;;;21.15;8.27;;;6.80;99.90;;;;;;5013696;28;20018;-88
2021/04/10 09:13:48;;;;;;;11.43;2.65;;;6.70;99.90;;;;;;5013459;28;20493;-89
2021/04/10 09:16:19;;;;;;;10.55;2.38;;;6.70;99.90;;;;;;5010188;28;20030;-89
2021/04/10 09:19:11;;;;;;;11.95;2.92;;;6.70;99.90;;;;;;4993915;28;20049;-88
2021/04/10 09:21:50;;;;;;;13.00;2.70;;;7.30;99.90;;;;;;4993831;28;20027;-87
2021/04/10 09:24:39;;;;;;;11.45;1.70;;;7.70;99.90;;;;;;4993423;28;20041;-87
2021/04/10 09:27:08;;;;;;;11.90;1.40;;;8.20;99.90;;;;;;4993704;28;20399;-86
2021/04/10 09:29:44;;;;;;;11.50;1.95;;;8.70;99.90;;;;;;4992615;28;20517;-88
2021/04/10 09:32:10;;;;;;;12.02;2.17;;;8.70;99.90;;;;;;5008647;28;20057;-88
2021/04/10 09:34:56;;;;;;;11.18;2.35;;;8.00;99.90;;;;;;4992922;28;20018;-88
2021/04/10 09:37:22;;;;;;;14.68;1.90;;;7.30;99.90;;;;;;4992933;28;20026;-88
2021/04/10 09:40:04;;;;;;;14.60;1.75;;;6.90;99.90;;;;;;4992287;28;20030;-88
2021/04/10 09:42:45;;;;;;;5.10;1.25;;;7.10;99.90;;;;;;5008700;28;20034;-88
2021/04/10 09:45:23;;;;;;;4.93;1.92;;;7.80;99.90;;;;;;4991722;28;20109;-87
2021/04/10 09:48:00;;;;;;;8.02;1.45;;;8.30;99.90;;;;;;4993063;28;20097;-88
2021/04/10 09:50:37;;;;;;;8.55;1.70;;;8.70;99.90;;;;;;4993222;28;20414;-87
2021/04/10 09:53:11;;;;;;;18.67;1.83;;;8.90;99.90;;;;;;4993146;28;20023;-89
2021/04/10 09:55:39;;;;;;;3.80;1.27;;;8.50;99.90;;;;;;5007676;28;20033;-88
2021/04/10 09:58:07;;;;;;;9.65;2.00;;;8.10;99.90;;;;;;4993033;28;20566;-89
2021/04/10 10:00:43;;;;;;;8.85;1.58;;;7.70;99.90;;;;;;4993104;28;20029;-87
2021/04/10 10:03:10;;;;;;;8.88;1.52;;;7.90;99.90;;;;;;5007908;28;20061;-86
2021/04/10 10:05:39;;;;;;;10.07;1.88;;;8.30;99.90;;;;;;5007296;28;20026;-88
2021/04/10 10:08:06;;;;;;;12.15;6.50;;;8.80;99.90;;;;;;5008372;28;20026;-87
2021/04/10 10:10:33;;;;;;;20.83;7.07;;;9.30;99.90;;;;;;4992786;28;20420;-88
2021/04/10 10:13:01;;;;;;;6.10;1.40;;;9.40;99.90;;;;;;4992591;28;20026;-87
2021/04/10 10:15:27;;;;;;;13.73;1.75;;;9.50;99.90;;;;;;5006932;28;20045;-87
2021/04/10 10:17:53;;;;;;;11.25;1.65;;;9.70;99.90;;;;;;4992254;28;20026;-87
2021/04/10 10:20:19;;;;;;;7.15;2.30;;;10.00;99.90;;;;;;5008322;28;20033;-89
2021/04/10 10:22:44;;;;;;;15.98;2.60;;;9.90;99.90;;;;;;5008144;28;20031;-89
2021/04/10 10:25:11;;;;;;;9.82;1.35;;;10.00;99.90;;;;;;4991917;28;20030;-87
2021/04/10 10:27:44;;;;;;;12.88;1.42;;;10.30;99.90;;;;;;5007737;28;20121;-89
2021/04/10 10:30:20;;;;;;;6.07;1.42;;;10.50;99.90;;;;;;5008298;28;20113;-88
2021/04/10 10:32:48;;;;;;;10.18;1.73;;;10.90;99.90;;;;;;4992777;28;20034;-90
2021/04/10 10:35:16;;;;;;;11.48;1.60;;;10.90;99.90;;;;;;4992209;28;20034;-89
2021/04/10 10:37:51;;;;;;;6.65;1.38;;;10.40;99.90;;;;;;5008051;28;20027;-89
2021/04/10 10:40:22;;;;;;;6.93;1.65;;;9.50;99.90;;;;;;5008013;28;20033;-87
2021/04/10 10:43:02;;;;;;;5.10;1.38;;;9.00;99.90;;;;;;5007594;28;20026;-88
2021/04/10 10:45:47;;;;;;;9.35;1.60;;;8.80;99.90;;;;;;4990524;28;20026;-87
2021/04/10 10:48:34;;;;;;;6.78;1.30;;;9.10;99.90;;;;;;4994014;28;20427;-86
2021/04/10 10:50:59;;;;;;;6.35;1.77;;;9.70;99.90;;;;;;4996028;28;20106;-86
2021/04/10 10:53:27;;;;;;;17.27;1.98;;;10.20;99.90;;;;;;4994974;28;20061;-88
2021/04/10 10:56:12;;;;;;;10.48;1.73;;;10.30;99.90;;;;;;4996400;28;20025;-89
2021/04/10 10:58:39;;;;;;;20.73;4.68;;;10.30;99.90;;;;;;5011899;28;20542;-87
2021/04/10 11:01:11;;;;;;;25.67;3.60;;;10.00;99.90;;;;;;4996821;28;20026;-88
2021/04/10 11:03:42;;;;;;;16.08;1.83;;;9.30;99.90;;;;;;5011355;28;20026;-88
2021/04/10 11:06:08;;;;;;;13.18;2.22;;;8.60;99.90;;;;;;5011136;28;20089;-87
2021/04/10 11:08:34;;;;;;;8.60;1.95;;;8.50;99.90;;;;;;5016888;28;20401;-88
2021/04/10 11:11:00;;;;;;;12.20;5.63;;;9.20;99.90;;;;;;5012852;28;20038;-88
2021/04/10 11:13:26;;;;;;;5.50;1.98;;;9.70;99.90;;;;;;5014328;28;20493;-88
2021/04/10 11:15:52;;;;;;;8.32;2.65;;;9.50;99.90;;;;;;5012067;28;20055;-88
2021/04/10 11:18:28;;;;;;;7.28;1.13;;;9.60;99.90;;;;;;5010504;28;20026;-86
2021/04/10 11:21:16;;;;;;;7.10;1.77;;;9.80;99.90;;;;;;5026829;28;20397;-88
2021/04/10 11:24:01;;;;;;;15.13;2.83;;;10.10;99.90;;;;;;5028977;28;20033;-88
2021/04/10 11:26:38;;;;;;;12.07;2.15;;;10.60;99.90;;;;;;5005745;28;20034;-87
2021/04/10 11:29:26;;;;;;;8.68;1.30;;;10.70;99.90;;;;;;5015701;28;20088;-89
2021/04/10 11:32:11;;;;;;;8.63;1.13;;;10.90;99.90;;;;;;5016588;28;20025;-88
2021/04/10 11:34:37;;;;;;;9.27;1.80;;;10.70;99.90;;;;;;5020836;28;20021;-88
2021/04/10 11:37:04;;;;;;;7.07;1.48;;;10.80;99.90;;;;;;5021071;28;20048;-88
2021/04/10 11:39:30;;;;;;;11.20;1.65;;;10.90;99.90;;;;;;5023065;28;20034;-88
2021/04/10 11:41:56;;;;;;;2.42;0.98;;;11.20;99.90;;;;;;5026779;28;20049;-88
2021/04/10 11:44:23;;;;;;;6.50;1.10;;;11.30;99.90;;;;;;5020873;28;20030;-85
2021/04/10 11:46:59;;;;;;;13.15;5.32;;;10.80;99.90;;;;;;5019026;28;20441;-85
2021/04/10 11:49:28;;;;;;;7.32;1.75;;;10.50;99.90;;;;;;5029048;28;20522;-88
2021/04/10 11:52:05;;;;;;;4.07;1.27;;;10.50;99.90;;;;;;5028612;28;20030;-86
2021/04/10 11:54:35;;;;;;;10.82;3.88;;;11.00;99.90;;;;;;5018555;28;20017;-85
2021/04/10 11:57:01;;;;;;;6.65;1.38;;;10.90;99.90;;;;;;5009758;28;20040;-85
2021/04/10 11:59:35;;;;;;;8.57;1.63;;;10.70;99.90;;;;;;5024508;28;20018;-86
2021/04/10 12:02:02;;;;;;;14.55;1.77;;;10.90;99.90;;;;;;5029359;28;20095;-86
2021/04/10 12:04:40;;;;;;;6.13;1.25;;;10.70;99.60;;;;;;5028491;28;20037;-87
2021/04/10 12:07:13;;;;;;;8.77;1.30;;;10.80;99.90;;;;;;5018785;28;20025;-85
2021/04/10 12:09:43;;;;;;;7.60;2.83;;;11.30;99.90;;;;;;5020337;28;20065;-87
2021/04/10 12:12:10;;;;;;;7.32;1.15;;;12.10;99.90;;;;;;5027983;28;20095;-86
2021/04/10 12:14:38;;;;;;;6.07;1.30;;;12.20;98.30;;;;;;5010505;28;20026;-87
2021/04/10 12:17:03;;;;;;;5.90;1.45;;;12.50;95.90;;;;;;5018123;28;20109;-87
2021/04/10 12:19:29;;;;;;;5.25;1.10;;;12.50;89.50;;;;;;5018845;28;20129;-87
2021/04/10 12:21:55;;;;;;;4.45;1.13;;;12.90;90.10;;;;;;5019384;28;20446;-86
2021/04/10 12:24:20;;;;;;;7.13;0.90;;;12.70;83.20;;;;;;5018397;28;20552;-87
2021/04/10 12:26:47;;;;;;;8.30;1.58;;;12.70;76.90;;;;;;5027162;28;20025;-87
2021/04/10 12:29:14;;;;;;;7.85;1.33;;;12.50;76.10;;;;;;5018860;28;20398;-87
2021/04/10 12:31:39;;;;;;;13.13;1.20;;;12.90;90.20;;;;;;5023389;28;20525;-89
2021/04/10 12:34:05;;;;;;;5.07;0.93;;;13.60;90.20;;;;;;5019622;28;20073;-89
2021/04/10 12:36:31;;;;;;;6.50;1.83;;;14.30;78.50;;;;;;5010169;28;20509;-86
2021/04/10 12:38:57;;;;;;;7.00;1.40;;;14.60;70.80;;;;;;5020599;28;20525;-88
2021/04/10 12:41:23;;;;;;;6.28;1.50;;;14.50;70.70;;;;;;5018821;28;20029;-89
2021/04/10 12:43:49;;;;;;;9.70;1.45;;;13.20;70.90;;;;;;5020371;28;20025;-87
2021/04/10 12:46:15;;;;;;;9.20;1.73;;;12.00;75.80;;;;;;4999270;28;20395;-88
2021/04/10 12:48:41;;;;;;;4.72;1.45;;;11.10;92.40;;;;;;4994795;28;20106;-89
2021/04/10 12:51:07;;;;;;;7.35;1.25;;;10.60;92.50;;;;;;4994405;28;20037;-88
2021/04/10 12:53:33;;;;;;;11.75;2.67;;;10.80;92.90;;;;;;4993251;28;20026;-87